createdAt,value
2018-12-26T00:03:38.803Z,14.13
2018-12-26T00:08:51.263Z,12.57
2018-12-26T00:14:00.881Z,12.73
2018-12-26T00:19:04.571Z,12.43
2018-12-26T00:24:10.880Z,13.80
2018-12-26T00:29:17.502Z,13.67
2018-12-26T00:34:21.491Z,12.60
2018-12-26T00:39:25.153Z,13.00
2018-12-26T00:44:28.775Z,12.13
2018-12-26T00:49:34.006Z,12.40
2018-12-26T00:54:39.280Z,13.13
2018-12-26T00:59:42.881Z,13.37
2018-12-26T01:04:49.269Z,12.80
2018-12-26T01:09:54.553Z,13.23
2018-12-26T01:15:04.067Z,12.77
2018-12-26T01:20:08.241Z,13.30
2018-12-26T01:25:11.843Z,12.60
2018-12-26T01:30:17.923Z,12.97
2018-12-26T01:35:23.243Z,11.70
2018-12-26T01:40:26.851Z,12.17
2018-12-26T01:45:37.907Z,12.60
2018-12-26T01:50:44.289Z,13.13
2018-12-26T01:55:48.245Z,13.30
2018-12-26T02:00:57.978Z,12.00
2018-12-26T02:06:03.301Z,12.40
2018-12-26T02:11:08.596Z,13.30
2018-12-26T02:16:12.290Z,13.10
2018-12-26T02:21:15.898Z,12.20
2018-12-26T02:26:22.220Z,13.47
2018-12-26T02:31:36.161Z,13.30
2018-12-26T02:36:32.941Z,11.70
2018-12-26T02:41:36.557Z,12.37
2018-12-26T02:46:40.166Z,13.20
2018-12-26T02:51:46.875Z,13.17
2018-12-26T02:56:53.233Z,13.13
2018-12-26T03:01:59.842Z,13.83
2018-12-26T03:07:04.255Z,14.07
2018-12-26T03:12:07.873Z,14.03
2018-12-26T03:17:18.558Z,14.10
2018-12-26T03:22:23.793Z,13.40
2018-12-26T03:27:27.406Z,14.50
2018-12-26T03:32:32.640Z,14.90
2018-12-26T03:37:36.273Z,14.70
2018-12-26T03:42:45.731Z,14.60
2018-12-26T03:47:52.334Z,13.13
2018-12-26T03:52:56.857Z,15.23
2018-12-26T03:58:03.255Z,14.73
2018-12-26T04:03:08.567Z,16.20
2018-12-26T04:08:12.256Z,14.60
2018-12-26T04:13:18.498Z,15.63
2018-12-26T04:18:22.195Z,15.60
2018-12-26T04:23:27.447Z,15.40
2018-12-26T04:28:32.779Z,15.47
2018-12-26T04:33:36.391Z,16.27
2018-12-26T04:38:41.653Z,15.23
2018-12-26T04:43:46.906Z,16.00
2018-12-26T04:48:53.231Z,15.77
2018-12-26T04:53:56.838Z,15.07
2018-12-26T04:59:00.461Z,16.70
2018-12-26T05:04:05.143Z,14.70
2018-12-26T05:09:13.310Z,14.67
2018-12-26T05:14:17.102Z,14.53
2018-12-26T05:19:20.717Z,14.60
2018-12-26T05:24:24.668Z,15.37
2018-12-26T05:29:28.303Z,14.13
2018-12-26T05:34:31.911Z,15.63
2018-12-26T05:39:35.526Z,15.00
2018-12-26T05:44:41.874Z,15.77
2018-12-26T05:49:45.514Z,15.03
2018-12-26T05:54:54.890Z,14.30
2018-12-26T06:00:01.292Z,15.10
2018-12-26T06:05:09.631Z,13.60
2018-12-26T06:10:13.350Z,15.33
2018-12-26T06:15:17.374Z,15.67
2018-12-26T06:20:21.000Z,16.90
2018-12-26T06:25:24.613Z,14.97
2018-12-26T06:30:28.266Z,15.00
2018-12-26T06:35:34.786Z,14.90
2018-12-26T06:40:38.386Z,14.37
2018-12-26T06:45:47.654Z,14.33
2018-12-26T06:50:50.708Z,14.93
2018-12-26T06:55:58.178Z,13.73
2018-12-26T07:01:03.424Z,13.97
2018-12-26T07:06:13.140Z,12.90
2018-12-26T07:11:19.444Z,13.47
2018-12-26T07:16:23.056Z,14.80
2018-12-26T07:21:26.668Z,14.40
2018-12-26T07:26:30.278Z,12.97
2018-12-26T07:31:36.834Z,14.77
2018-12-26T07:36:40.446Z,14.30
2018-12-26T07:41:44.063Z,14.57
2018-12-26T07:46:58.786Z,15.67
2018-12-26T07:52:02.403Z,15.47
2018-12-26T07:57:10.251Z,14.90
2018-12-26T08:02:13.879Z,16.90
2018-12-26T08:07:19.062Z,15.20
2018-12-26T08:12:22.756Z,14.77
2018-12-26T08:17:26.391Z,13.90
2018-12-26T08:22:32.742Z,14.53
2018-12-26T08:27:40.732Z,15.77
2018-12-26T08:32:50.076Z,15.43
2018-12-26T08:37:59.330Z,16.17
2018-12-26T08:43:02.971Z,15.57
2018-12-26T08:48:09.300Z,16.27
2018-12-26T08:53:14.825Z,15.27
2018-12-26T08:58:25.597Z,13.37
2018-12-26T09:03:29.239Z,15.13
2018-12-26T09:08:32.875Z,14.73
2018-12-26T09:13:37.530Z,15.83
2018-12-26T09:18:41.108Z,14.70
2018-12-26T09:23:49.290Z,14.00
2018-12-26T09:28:53.415Z,14.90
2018-12-26T09:33:57.036Z,15.00
2018-12-26T09:39:02.335Z,13.97
2018-12-26T09:44:06.664Z,13.43
2018-12-26T09:49:13.204Z,13.97
2018-12-26T09:54:16.817Z,13.60
2018-12-26T09:59:23.153Z,14.70
2018-12-26T10:04:26.801Z,14.40
2018-12-26T10:09:30.527Z,15.00
2018-12-26T10:14:35.449Z,13.90
2018-12-26T10:19:40.700Z,13.80
2018-12-26T10:24:45.989Z,17.20
2018-12-26T10:29:56.161Z,15.23
2018-12-26T10:34:55.488Z,15.20
2018-12-26T10:40:01.794Z,15.57
2018-12-26T10:45:06.277Z,15.43
2018-12-26T10:50:14.864Z,15.30
2018-12-26T10:55:18.476Z,14.97
2018-12-26T11:00:22.095Z,14.17
2018-12-26T11:05:29.585Z,13.87
2018-12-26T11:10:32.729Z,12.90
2018-12-26T11:15:36.509Z,16.00
2018-12-26T11:20:40.137Z,15.07
2018-12-26T11:25:43.800Z,13.20
2018-12-26T11:30:51.613Z,13.30
2018-12-26T11:35:55.397Z,13.83
2018-12-26T11:40:59.081Z,12.80
2018-12-26T11:46:05.803Z,13.20
2018-12-26T11:51:09.451Z,13.10
2018-12-26T11:56:13.071Z,13.63
2018-12-26T12:01:18.327Z,13.00
2018-12-26T12:06:22.043Z,13.30
2018-12-26T12:11:28.631Z,11.87
2018-12-26T12:16:35.532Z,13.80
2018-12-26T12:21:42.125Z,14.07
2018-12-26T12:26:45.792Z,13.13
2018-12-26T12:31:51.816Z,13.93
2018-12-26T12:36:59.141Z,12.30
2018-12-26T12:42:02.926Z,12.67
2018-12-26T12:47:08.203Z,13.10
2018-12-26T12:52:11.827Z,13.17
2018-12-26T12:57:16.254Z,14.20
2018-12-26T13:02:22.951Z,15.57
2018-12-26T13:07:26.569Z,14.90
2018-12-26T13:12:34.839Z,13.43
2018-12-26T13:17:40.068Z,13.73
2018-12-26T13:22:43.741Z,13.00
2018-12-26T13:27:50.107Z,11.60
2018-12-26T13:32:55.361Z,12.77
2018-12-26T13:38:00.783Z,13.07
2018-12-26T13:43:06.058Z,12.50
2018-12-26T13:48:11.318Z,11.97
2018-12-26T13:53:15.095Z,12.70
2018-12-26T13:58:22.433Z,12.70
2018-12-26T14:03:26.084Z,12.30
2018-12-26T14:08:35.244Z,12.60
2018-12-26T14:13:38.854Z,11.53
2018-12-26T14:18:51.218Z,12.17
2018-12-26T14:23:57.779Z,12.83
2018-12-26T14:29:01.432Z,13.03
2018-12-26T14:34:05.071Z,13.10
2018-12-26T14:39:08.853Z,11.80
2018-12-26T14:44:15.228Z,13.67
2018-12-26T14:49:18.860Z,13.37
2018-12-26T14:54:22.548Z,13.30
2018-12-26T14:59:26.255Z,13.20
2018-12-26T15:04:33.208Z,12.40
2018-12-26T15:09:41.646Z,11.60
2018-12-26T15:14:49.806Z,13.00
2018-12-26T15:19:53.700Z,13.20
2018-12-26T15:24:57.338Z,13.20
2018-12-26T15:30:02.685Z,12.40
2018-12-26T15:35:08.258Z,12.80
2018-12-26T15:40:15.342Z,13.17
2018-12-26T15:45:29.723Z,15.33
2018-12-26T15:50:26.358Z,13.23
2018-12-26T15:55:30.140Z,13.70
2018-12-26T16:00:37.461Z,13.23
2018-12-26T16:05:45.429Z,13.33
2018-12-26T16:10:49.342Z,13.20
2018-12-26T16:15:52.970Z,14.80
2018-12-26T16:20:59.256Z,14.40
2018-12-26T16:26:08.472Z,14.47
2018-12-26T16:31:15.414Z,14.23
2018-12-26T16:36:19.169Z,15.07
2018-12-26T16:41:23.089Z,15.10
2018-12-26T16:46:30.512Z,15.03
2018-12-26T16:51:34.059Z,16.40
2018-12-26T16:56:40.378Z,14.30
2018-12-26T17:01:44.267Z,15.27
2018-12-26T17:06:53.591Z,15.57
2018-12-26T17:11:57.261Z,15.60
2018-12-26T17:17:00.862Z,15.43
2018-12-26T17:22:08.512Z,15.40
2018-12-26T17:27:14.952Z,15.33
2018-12-26T17:32:18.578Z,14.70
2018-12-26T17:37:22.181Z,22.73
2018-12-26T17:42:25.779Z,16.53
2018-12-26T17:47:32.266Z,16.80
2018-12-26T17:52:39.977Z,15.53
2018-12-26T17:57:50.859Z,17.20
2018-12-26T18:03:00.294Z,16.00
2018-12-26T18:08:03.995Z,15.73
2018-12-26T18:13:11.464Z,16.80
2018-12-26T18:18:18.407Z,17.10
2018-12-26T18:23:23.689Z,17.90
2018-12-26T18:28:27.473Z,16.40
2018-12-26T18:33:34.130Z,20.17
2018-12-26T18:38:37.818Z,21.13
2018-12-26T18:43:46.452Z,18.90
2018-12-26T18:48:48.591Z,18.67
2018-12-26T18:53:54.922Z,18.37
2018-12-26T18:59:01.571Z,18.73
2018-12-26T19:04:07.906Z,18.07
2018-12-26T19:09:11.546Z,18.77
2018-12-26T19:14:18.054Z,17.60
2018-12-26T19:19:23.388Z,18.40
2018-12-26T19:24:27.209Z,18.73
2018-12-26T19:29:31.268Z,17.60
2018-12-26T19:34:34.864Z,18.60
2018-12-26T19:39:43.743Z,17.57
2018-12-26T19:44:50.398Z,17.43
2018-12-26T19:50:04.553Z,18.40
2018-12-26T19:55:00.943Z,18.13
2018-12-26T20:00:06.021Z,18.60
2018-12-26T20:05:12.373Z,17.93
2018-12-26T20:10:17.852Z,19.47
2018-12-26T20:15:23.118Z,16.60
2018-12-26T20:20:29.418Z,18.90
2018-12-26T20:25:33.053Z,18.23
2018-12-26T20:30:36.695Z,16.90
2018-12-26T20:35:42.983Z,18.00
2018-12-26T20:40:51.821Z,17.17
2018-12-26T20:46:00.021Z,19.20
2018-12-26T20:51:05.035Z,18.20
2018-12-26T20:56:11.686Z,19.53
2018-12-26T21:01:17.814Z,17.60
2018-12-26T21:06:23.144Z,18.53
2018-12-26T21:11:29.662Z,18.87
2018-12-26T21:16:33.295Z,19.17
2018-12-26T21:21:42.714Z,18.57
2018-12-26T21:26:48.142Z,17.83
2018-12-26T21:31:52.413Z,19.63
2018-12-26T21:36:58.966Z,18.40
2018-12-26T21:42:03.743Z,19.77
2018-12-26T21:47:17.011Z,17.47
2018-12-26T21:52:23.575Z,17.93
2018-12-26T21:57:28.316Z,18.90
2018-12-26T22:02:31.983Z,17.03
2018-12-26T22:07:35.627Z,17.67
2018-12-26T22:12:45.093Z,17.80
2018-12-26T22:17:50.351Z,17.50
2018-12-26T22:22:55.606Z,16.30
2018-12-26T22:27:59.506Z,18.53
2018-12-26T22:33:09.389Z,16.80
2018-12-26T22:38:15.088Z,17.70
2018-12-26T22:43:21.798Z,19.30
2018-12-26T22:48:25.863Z,16.37
2018-12-26T22:53:29.479Z,17.77
2018-12-26T22:58:36.030Z,18.07
2018-12-26T23:03:39.830Z,17.30
2018-12-26T23:08:43.447Z,19.47
2018-12-26T23:13:47.338Z,18.00
2018-12-26T23:18:51.025Z,19.40
2018-12-26T23:24:09.472Z,18.03
2018-12-26T23:29:19.324Z,18.90
2018-12-26T23:34:22.936Z,18.70
2018-12-26T23:39:28.467Z,19.40
2018-12-26T23:44:33.441Z,17.90
2018-12-26T23:49:37.230Z,19.10
2018-12-26T23:54:40.859Z,17.60
2018-12-26T23:59:44.491Z,21.20
